West Village, Colorado
Current Conditions -  °F | °C
As of 11:53 AM on Friday 28 Nov 2014 (Local Time) from KASE Reporting Station
Clear Clear  
Wind Chill: 44°   Ceiling: Unl
Heat Index: 46°   Visibility: 10mi
Dew Point: 21°   Wind: 5mph
Humidity: 37%   Direction: 320°NW
Pressure: 30.14"   Gusts: NA
Location:  39.1905°N, 106.819°W
Report Text: KASE 281853Z 32004KT 10SM CLR 08/M06 A3014 RMK AO2 SLP161 T00781061
Loading
Personal Weather Stations






























Interactive Weather Map New forecast layout! Learn more

10-Day Weather Forecast

Advertisements
Track Severe Weather on mobile